createdAt,value
2018-03-26T00:01:13.824Z,5.26
2018-03-26T00:03:41.423Z,5.30
2018-03-26T00:06:09.133Z,5.13
2018-03-26T00:08:36.808Z,4.95
2018-03-26T00:11:04.444Z,5.01
2018-03-26T00:15:58.955Z,5.12
2018-03-26T00:18:26.557Z,5.17
2018-03-26T00:23:28.209Z,5.10
2018-03-26T00:25:56.017Z,5.08
2018-03-26T00:28:23.718Z,5.14
2018-03-26T00:30:51.309Z,5.00
2018-03-26T00:33:19.041Z,5.03
2018-03-26T00:35:46.708Z,4.83
2018-03-26T00:38:14.379Z,4.84
2018-03-26T00:40:42.068Z,4.89
2018-03-26T00:43:09.674Z,5.00
2018-03-26T00:45:37.373Z,4.88
2018-03-26T00:48:04.983Z,4.59
2018-03-26T00:50:32.593Z,4.63
2018-03-26T00:53:00.265Z,4.64
2018-03-26T00:55:27.891Z,4.73
2018-03-26T00:57:55.563Z,4.67
2018-03-26T01:00:23.177Z,4.66
2018-03-26T01:02:50.867Z,4.58
2018-03-26T01:05:18.704Z,4.39
2018-03-26T01:07:46.388Z,4.34
2018-03-26T01:10:14.063Z,4.48
2018-03-26T01:12:41.796Z,4.52
2018-03-26T01:15:09.483Z,4.35
2018-03-26T01:17:37.193Z,4.45
2018-03-26T01:20:04.870Z,4.62
2018-03-26T01:22:32.596Z,4.59
2018-03-26T01:25:00.278Z,4.55
2018-03-26T01:27:27.988Z,4.62
2018-03-26T01:29:55.672Z,4.59
2018-03-26T01:32:23.351Z,4.57
2018-03-26T01:34:51.176Z,4.58
2018-03-26T01:37:18.858Z,4.55
2018-03-26T01:39:46.464Z,4.62
2018-03-26T01:42:14.152Z,4.64
2018-03-26T01:44:41.865Z,4.56
2018-03-26T01:47:09.560Z,4.47
2018-03-26T01:49:37.239Z,4.38
2018-03-26T01:52:04.863Z,4.07
2018-03-26T01:54:32.468Z,4.10
2018-03-26T01:57:00.153Z,4.30
2018-03-26T01:59:27.856Z,4.30
2018-03-26T02:01:55.526Z,4.26
2018-03-26T02:04:23.132Z,4.32
2018-03-26T02:06:50.724Z,4.37
2018-03-26T02:09:18.757Z,4.41
2018-03-26T02:11:46.424Z,4.33
2018-03-26T02:14:14.093Z,4.24
2018-03-26T02:16:41.787Z,4.26
2018-03-26T02:19:09.456Z,4.33
2018-03-26T02:21:37.149Z,4.46
2018-03-26T02:24:04.812Z,4.58
2018-03-26T02:26:32.803Z,4.58
2018-03-26T02:29:00.471Z,4.66
2018-03-26T02:31:28.149Z,4.65
2018-03-26T02:33:55.843Z,4.67
2018-03-26T02:36:23.518Z,4.65
2018-03-26T02:38:51.635Z,4.67
2018-03-26T02:41:19.312Z,4.63
2018-03-26T02:43:46.986Z,4.65
2018-03-26T02:46:14.680Z,4.71
2018-03-26T02:48:42.347Z,4.66
2018-03-26T02:51:09.970Z,4.60
2018-03-26T02:53:37.569Z,4.59
2018-03-26T02:56:05.280Z,4.66
2018-03-26T02:58:32.954Z,4.66
2018-03-26T03:01:00.626Z,4.64
2018-03-26T03:03:28.250Z,4.63
2018-03-26T03:05:55.844Z,4.58
2018-03-26T03:08:23.460Z,4.52
2018-03-26T03:10:51.133Z,4.60
2018-03-26T03:13:18.846Z,4.62
2018-03-26T03:15:46.435Z,4.55
2018-03-26T03:18:14.116Z,4.74
2018-03-26T03:20:41.815Z,4.50
2018-03-26T03:23:09.483Z,4.60
2018-03-26T03:25:37.187Z,4.56
2018-03-26T03:28:04.855Z,4.58
2018-03-26T03:30:32.481Z,4.54
2018-03-26T03:33:00.149Z,4.64
2018-03-26T03:35:27.856Z,4.42
2018-03-26T03:37:55.521Z,4.68
2018-03-26T03:40:23.206Z,4.76
2018-03-26T03:42:50.900Z,4.78
2018-03-26T03:45:18.591Z,4.79
2018-03-26T03:47:46.284Z,4.75
2018-03-26T03:50:13.967Z,4.70
2018-03-26T03:52:42.099Z,4.81
2018-03-26T03:55:09.798Z,4.77
2018-03-26T03:57:37.474Z,4.45
2018-03-26T04:00:05.197Z,4.67
2018-03-26T04:02:32.884Z,4.68
2018-03-26T04:05:00.588Z,4.74
2018-03-26T04:07:28.292Z,4.66
2018-03-26T04:09:56.264Z,4.73
2018-03-26T04:12:23.948Z,4.56
2018-03-26T04:14:51.624Z,4.63
2018-03-26T04:17:19.241Z,4.36
2018-03-26T04:19:46.910Z,4.44
2018-03-26T04:22:14.734Z,4.48
2018-03-26T04:24:42.399Z,4.62
2018-03-26T04:27:10.097Z,4.75
2018-03-26T04:29:37.791Z,4.67
2018-03-26T04:32:05.529Z,4.88
2018-03-26T04:34:33.203Z,4.86
2018-03-26T04:37:00.880Z,4.91
2018-03-26T04:39:28.500Z,5.07
2018-03-26T04:41:56.181Z,5.02
2018-03-26T04:44:23.936Z,5.05
2018-03-26T04:46:51.524Z,5.05
2018-03-26T04:49:19.115Z,5.10
2018-03-26T04:51:46.735Z,5.14
2018-03-26T04:54:14.342Z,5.13
2018-03-26T04:56:41.954Z,5.24
2018-03-26T04:59:09.556Z,5.29
2018-03-26T05:01:37.579Z,5.27
2018-03-26T05:04:05.186Z,5.30
2018-03-26T05:09:06.647Z,5.04
2018-03-26T05:11:34.256Z,5.05
2018-03-26T05:14:01.878Z,5.05
2018-03-26T05:16:29.481Z,5.05
2018-03-26T05:18:57.110Z,5.11
2018-03-26T05:21:24.717Z,5.09
2018-03-26T05:23:52.319Z,5.11
2018-03-26T05:26:19.944Z,4.84
2018-03-26T05:28:47.627Z,4.85
2018-03-26T05:31:15.233Z,4.93
2018-03-26T05:33:42.836Z,5.06
2018-03-26T05:36:10.793Z,5.03
2018-03-26T05:38:38.392Z,4.98
2018-03-26T05:41:05.988Z,5.06
2018-03-26T05:43:33.681Z,5.18
2018-03-26T05:46:01.275Z,5.16
2018-03-26T05:48:29.001Z,5.28
2018-03-26T05:50:56.672Z,5.23
2018-03-26T05:53:24.273Z,5.02
2018-03-26T05:55:51.969Z,5.14
2018-03-26T05:58:19.671Z,5.10
2018-03-26T06:00:47.611Z,5.04
2018-03-26T06:03:15.280Z,4.88
2018-03-26T06:05:42.970Z,4.93
2018-03-26T06:08:10.672Z,4.99
2018-03-26T06:10:38.370Z,5.14
2018-03-26T06:13:05.988Z,5.28
2018-03-26T06:15:33.708Z,5.38
2018-03-26T06:18:01.310Z,5.39
2018-03-26T06:20:28.983Z,5.21
2018-03-26T06:22:56.628Z,5.31
2018-03-26T06:25:24.226Z,5.38
2018-03-26T06:27:51.821Z,5.50
2018-03-26T06:30:19.454Z,5.51
2018-03-26T06:32:47.152Z,5.53
2018-03-26T06:35:14.918Z,5.52
2018-03-26T06:37:47.973Z,5.50
2018-03-26T06:40:15.621Z,5.67
2018-03-26T06:42:44.760Z,5.79
2018-03-26T06:45:12.362Z,5.82
2018-03-26T06:47:39.989Z,5.96
2018-03-26T06:50:07.588Z,6.08
2018-03-26T06:52:35.210Z,5.92
2018-03-26T06:55:02.832Z,5.99
2018-03-26T06:57:30.496Z,6.11
2018-03-26T06:59:58.089Z,6.09
2018-03-26T07:02:25.692Z,6.10
2018-03-26T07:04:53.312Z,6.22
2018-03-26T07:07:20.903Z,6.29
2018-03-26T07:09:48.546Z,6.30
2018-03-26T07:12:16.143Z,6.29
2018-03-26T07:14:43.879Z,6.33
2018-03-26T07:17:11.471Z,6.25
2018-03-26T07:19:39.060Z,6.19
2018-03-26T07:22:06.692Z,6.22
2018-03-26T07:24:34.291Z,6.22
2018-03-26T07:27:02.135Z,6.20
2018-03-26T07:29:29.739Z,6.20
2018-03-26T07:31:57.348Z,6.12
2018-03-26T07:34:24.969Z,5.48
2018-03-26T07:36:52.555Z,5.53
2018-03-26T07:39:20.182Z,5.73
2018-03-26T07:41:47.767Z,5.82
2018-03-26T07:44:15.559Z,5.91
2018-03-26T07:46:43.169Z,5.85
2018-03-26T07:49:10.769Z,5.73
2018-03-26T07:51:38.390Z,5.50
2018-03-26T07:54:06.117Z,5.52
2018-03-26T07:56:33.829Z,5.66
2018-03-26T07:59:01.863Z,5.67
2018-03-26T08:01:29.927Z,5.38
2018-03-26T08:03:57.593Z,5.19
2018-03-26T08:06:25.180Z,5.45
2018-03-26T08:08:52.871Z,5.58
2018-03-26T08:11:20.553Z,5.85
2018-03-26T08:13:48.249Z,6.04
2018-03-26T08:16:15.908Z,6.06
2018-03-26T08:18:43.763Z,6.17
2018-03-26T08:21:11.377Z,6.07
2018-03-26T08:23:38.963Z,6.03
2018-03-26T08:26:06.588Z,6.17
2018-03-26T08:28:34.171Z,6.13
2018-03-26T08:31:01.798Z,6.28
2018-03-26T08:33:29.414Z,6.49
2018-03-26T08:35:57.212Z,6.52
2018-03-26T08:38:24.825Z,6.53
2018-03-26T08:40:52.469Z,6.76
2018-03-26T08:43:20.060Z,6.65
2018-03-26T08:45:47.700Z,6.73
2018-03-26T08:48:15.316Z,6.79
2018-03-26T08:50:43.102Z,6.92
2018-03-26T08:53:11.056Z,6.76
2018-03-26T08:55:38.647Z,6.90
2018-03-26T08:58:06.249Z,7.04
2018-03-26T09:00:33.868Z,7.00
2018-03-26T09:03:01.497Z,7.05
2018-03-26T09:05:29.115Z,6.81
2018-03-26T09:07:56.720Z,6.78
2018-03-26T09:10:24.380Z,7.05
2018-03-26T09:12:51.979Z,7.30
2018-03-26T09:15:20.030Z,7.33
2018-03-26T09:17:48.004Z,7.34
2018-03-26T09:20:15.666Z,7.33
2018-03-26T09:22:43.278Z,7.50
2018-03-26T09:25:10.877Z,7.61
2018-03-26T09:27:38.825Z,7.57
2018-03-26T09:30:06.446Z,7.65
2018-03-26T09:32:34.881Z,7.63
2018-03-26T09:35:02.544Z,7.68
2018-03-26T09:37:30.159Z,7.55
2018-03-26T09:39:57.789Z,7.58
2018-03-26T09:42:25.388Z,7.80
2018-03-26T09:44:53.520Z,8.00
2018-03-26T09:47:21.490Z,8.09
2018-03-26T09:49:49.089Z,7.94
2018-03-26T09:52:16.717Z,8.07
2018-03-26T09:54:44.316Z,8.13
2018-03-26T09:57:11.959Z,8.21
2018-03-26T09:59:39.580Z,8.29
2018-03-26T10:02:07.206Z,8.45
2018-03-26T10:04:34.816Z,8.40
2018-03-26T10:07:02.664Z,8.56
2018-03-26T10:09:30.263Z,8.40
2018-03-26T10:11:57.867Z,8.54
2018-03-26T10:14:25.721Z,8.47
2018-03-26T10:16:53.571Z,8.56
2018-03-26T10:19:21.196Z,8.52
2018-03-26T10:21:48.799Z,8.51
2018-03-26T10:24:16.467Z,8.49
2018-03-26T10:26:44.067Z,8.52
2018-03-26T10:29:11.707Z,8.50
2018-03-26T10:31:39.299Z,8.49
2018-03-26T10:34:06.919Z,8.52
2018-03-26T10:36:34.540Z,8.61
2018-03-26T10:39:02.138Z,8.79
2018-03-26T10:41:29.756Z,8.87
2018-03-26T10:43:57.812Z,8.87
2018-03-26T10:46:25.748Z,8.95
2018-03-26T10:48:53.339Z,8.98
2018-03-26T10:51:20.940Z,9.04
2018-03-26T10:53:48.556Z,8.95
2018-03-26T10:56:16.172Z,9.19
2018-03-26T10:58:43.789Z,8.98
2018-03-26T11:01:11.405Z,9.08
2018-03-26T11:03:39.043Z,9.03
2018-03-26T11:06:06.900Z,9.34
2018-03-26T11:08:34.801Z,9.30
2018-03-26T11:11:02.773Z,9.11
2018-03-26T11:13:31.110Z,8.89
2018-03-26T11:15:59.183Z,9.04
2018-03-26T11:18:27.054Z,9.14
2018-03-26T11:20:55.293Z,8.85
2018-03-26T11:23:23.191Z,9.14
2018-03-26T11:25:51.056Z,9.16
2018-03-26T11:28:19.130Z,9.07
2018-03-26T11:30:46.975Z,9.10
2018-03-26T11:33:14.604Z,9.13
2018-03-26T11:35:43.137Z,9.03
2018-03-26T11:38:10.796Z,9.31
2018-03-26T11:40:38.431Z,9.31
2018-03-26T11:43:06.028Z,9.37
2018-03-26T11:45:33.994Z,9.16
2018-03-26T11:48:01.862Z,9.41
2018-03-26T11:50:29.517Z,9.52
2018-03-26T11:52:57.144Z,9.65
2018-03-26T11:55:24.759Z,9.76
2018-03-26T11:57:52.364Z,9.84
2018-03-26T12:00:20.003Z,9.95
2018-03-26T12:02:47.849Z,10.05
2018-03-26T12:05:16.547Z,10.06
2018-03-26T12:07:44.134Z,9.88
2018-03-26T12:10:11.732Z,10.19
2018-03-26T12:12:39.356Z,9.34
2018-03-26T12:15:06.956Z,9.68
2018-03-26T12:17:34.597Z,9.18
2018-03-26T12:20:14.769Z,9.66
2018-03-26T12:22:42.913Z,9.55
2018-03-26T12:25:13.235Z,9.40
2018-03-26T12:27:52.824Z,9.18
2018-03-26T12:30:20.431Z,9.57
2018-03-26T12:32:48.027Z,9.64
2018-03-26T12:35:27.457Z,9.66
2018-03-26T12:37:55.062Z,9.62
2018-03-26T12:40:34.496Z,9.65
2018-03-26T12:43:02.116Z,9.59
2018-03-26T12:45:41.910Z,9.69
2018-03-26T12:48:09.497Z,9.56
2018-03-26T12:50:49.199Z,9.83
2018-03-26T12:53:17.067Z,9.79
2018-03-26T12:55:44.663Z,9.78
2018-03-26T12:58:24.076Z,9.64
2018-03-26T13:01:03.696Z,9.71
2018-03-26T13:03:31.325Z,9.65
2018-03-26T13:05:59.102Z,9.84
2018-03-26T13:08:26.888Z,9.87
2018-03-26T13:10:54.479Z,9.60
2018-03-26T13:13:22.070Z,9.86
2018-03-26T13:15:49.704Z,9.84
2018-03-26T13:18:17.300Z,9.49
2018-03-26T13:20:45.275Z,10.09
2018-03-26T13:23:13.900Z,10.28
2018-03-26T13:25:41.763Z,10.00
2018-03-26T13:28:09.635Z,10.09
2018-03-26T13:30:37.603Z,10.29
2018-03-26T13:33:05.200Z,10.20
2018-03-26T13:35:32.797Z,10.23
2018-03-26T13:38:00.801Z,10.41
2018-03-26T13:40:28.763Z,10.17
2018-03-26T13:42:56.822Z,10.49
2018-03-26T13:45:25.108Z,10.71
2018-03-26T13:47:52.700Z,10.55
2018-03-26T13:50:20.733Z,10.99
2018-03-26T13:52:48.711Z,10.97
2018-03-26T13:55:16.331Z,11.33
2018-03-26T13:57:43.936Z,11.46
2018-03-26T14:00:11.576Z,11.55
2018-03-26T14:02:39.168Z,11.01
2018-03-26T14:05:06.772Z,11.09
2018-03-26T14:07:34.395Z,10.84
2018-03-26T14:10:13.792Z,10.35
2018-03-26T14:12:53.344Z,10.61
2018-03-26T14:15:32.701Z,11.07
2018-03-26T14:18:01.101Z,10.79
2018-03-26T14:20:29.046Z,10.66
2018-03-26T14:22:57.019Z,10.74
2018-03-26T14:25:24.639Z,10.81
2018-03-26T14:27:52.233Z,10.54
2018-03-26T14:30:19.845Z,10.79
2018-03-26T14:32:47.476Z,10.67
2018-03-26T14:38:29.361Z,10.68
2018-03-26T14:40:56.970Z,10.56
2018-03-26T14:43:24.588Z,9.91
2018-03-26T14:45:52.226Z,9.70
2018-03-26T14:48:20.042Z,9.32
2018-03-26T14:50:47.995Z,9.38
2018-03-26T14:53:15.967Z,8.84
2018-03-26T14:55:43.561Z,8.89
2018-03-26T14:58:11.152Z,8.90
2018-03-26T15:00:38.937Z,8.79
2018-03-26T15:03:06.541Z,8.83
2018-03-26T15:05:34.125Z,8.92
2018-03-26T15:08:01.748Z,8.76
2018-03-26T15:10:29.363Z,8.76
2018-03-26T15:12:56.963Z,8.44
2018-03-26T15:15:24.595Z,8.50
2018-03-26T15:17:52.272Z,8.53
2018-03-26T15:20:20.170Z,8.54
2018-03-26T15:22:48.051Z,8.75
2018-03-26T15:25:15.645Z,8.93
2018-03-26T15:27:43.331Z,8.75
2018-03-26T15:30:10.954Z,8.86
2018-03-26T15:32:38.543Z,9.01
2018-03-26T15:35:06.130Z,8.89
2018-03-26T15:37:33.766Z,8.97
2018-03-26T15:40:01.360Z,8.85
2018-03-26T15:42:29.043Z,8.79
2018-03-26T15:44:56.668Z,8.74
2018-03-26T15:47:24.280Z,8.78
2018-03-26T15:49:52.432Z,8.84
2018-03-26T15:52:20.378Z,8.85
2018-03-26T15:54:47.988Z,8.96
2018-03-26T15:57:15.576Z,9.02
2018-03-26T15:59:43.456Z,9.08
2018-03-26T16:02:15.314Z,9.11
2018-03-26T16:04:42.928Z,8.92
2018-03-26T16:07:10.640Z,8.80
2018-03-26T16:09:38.242Z,9.04
2018-03-26T16:12:05.847Z,8.71
2018-03-26T16:14:33.476Z,8.67
2018-03-26T16:17:01.081Z,8.56
2018-03-26T16:19:28.748Z,8.70
2018-03-26T16:21:56.386Z,8.56
2018-03-26T16:24:23.984Z,8.52
2018-03-26T16:26:51.580Z,8.59
2018-03-26T16:29:19.214Z,8.76
2018-03-26T16:31:46.812Z,8.96
2018-03-26T16:34:14.520Z,9.02
2018-03-26T16:36:42.142Z,8.79
2018-03-26T16:39:09.741Z,8.60
2018-03-26T16:41:47.390Z,8.87
2018-03-26T16:44:14.987Z,8.66
2018-03-26T16:46:42.588Z,8.72
2018-03-26T16:49:10.213Z,8.84
2018-03-26T16:51:37.803Z,9.06
2018-03-26T16:54:05.405Z,8.92
2018-03-26T16:56:33.040Z,8.70
2018-03-26T16:59:00.637Z,8.44
2018-03-26T17:01:28.326Z,8.65
2018-03-26T17:03:55.982Z,8.82
2018-03-26T17:06:23.659Z,9.05
2018-03-26T17:08:51.319Z,8.72
2018-03-26T17:11:18.951Z,8.77
2018-03-26T17:13:46.540Z,9.15
2018-03-26T17:16:14.136Z,9.00
2018-03-26T17:18:41.788Z,9.05
2018-03-26T17:21:09.430Z,8.99
2018-03-26T17:23:36.979Z,8.76
2018-03-26T17:26:04.618Z,9.07
2018-03-26T17:28:32.204Z,9.13
2018-03-26T17:30:59.804Z,8.88
2018-03-26T17:33:27.424Z,8.94
2018-03-26T17:35:55.028Z,8.88
2018-03-26T17:38:22.620Z,8.93
2018-03-26T17:40:50.239Z,8.95
2018-03-26T17:43:17.848Z,8.78
2018-03-26T17:45:45.444Z,8.96
2018-03-26T17:48:13.086Z,8.95
2018-03-26T17:50:40.688Z,8.97
2018-03-26T17:53:08.611Z,8.75
2018-03-26T17:55:36.241Z,8.76
2018-03-26T17:58:03.860Z,8.67
2018-03-26T18:00:31.469Z,8.73
2018-03-26T18:02:59.101Z,8.77
2018-03-26T18:05:26.696Z,8.60
2018-03-26T18:07:54.296Z,8.68
2018-03-26T18:10:22.054Z,8.84
2018-03-26T18:12:49.651Z,8.72
2018-03-26T18:15:17.268Z,8.63
2018-03-26T18:17:44.888Z,8.63
2018-03-26T18:20:12.490Z,8.70
2018-03-26T18:22:40.093Z,8.62
2018-03-26T18:25:07.783Z,8.63
2018-03-26T18:27:35.378Z,8.56
2018-03-26T18:30:02.985Z,8.57
2018-03-26T18:32:30.615Z,8.64
2018-03-26T18:34:58.212Z,8.52
2018-03-26T18:37:25.806Z,8.63
2018-03-26T18:39:53.428Z,8.62
2018-03-26T18:42:21.024Z,8.68
2018-03-26T18:44:48.615Z,8.73
2018-03-26T18:47:16.251Z,8.72
2018-03-26T18:49:43.873Z,8.69
2018-03-26T18:52:11.495Z,8.75
2018-03-26T18:54:39.123Z,8.66
2018-03-26T18:57:06.711Z,8.76
2018-03-26T18:59:34.300Z,8.76
2018-03-26T19:02:01.941Z,8.76
2018-03-26T19:04:29.537Z,8.68
2018-03-26T19:06:57.124Z,8.58
2018-03-26T19:09:24.762Z,8.58
2018-03-26T19:11:52.365Z,8.70
2018-03-26T19:14:19.964Z,8.77
2018-03-26T19:16:47.651Z,8.87
2018-03-26T19:19:15.220Z,8.76
2018-03-26T19:21:42.816Z,8.79
2018-03-26T19:24:10.442Z,8.86
2018-03-26T19:26:38.036Z,8.89
2018-03-26T19:29:05.652Z,8.82
2018-03-26T19:31:33.287Z,8.81
2018-03-26T19:34:00.880Z,8.87
2018-03-26T19:36:28.776Z,8.87
2018-03-26T19:38:56.408Z,8.86
2018-03-26T19:41:24.000Z,8.72
2018-03-26T19:43:51.605Z,8.62
2018-03-26T19:46:19.280Z,8.82
2018-03-26T19:48:46.907Z,8.78
2018-03-26T19:51:14.507Z,8.72
2018-03-26T19:53:42.137Z,8.72
2018-03-26T19:56:09.875Z,8.79
2018-03-26T19:58:37.458Z,8.78
2018-03-26T20:01:05.218Z,8.68
2018-03-26T20:03:32.888Z,8.75
2018-03-26T20:06:00.485Z,8.54
2018-03-26T20:08:28.114Z,8.59
2018-03-26T20:10:55.711Z,8.76
2018-03-26T20:13:23.299Z,8.79
2018-03-26T20:15:50.928Z,8.72
2018-03-26T20:18:18.519Z,8.78
2018-03-26T20:20:46.112Z,8.64
2018-03-26T20:23:13.791Z,8.39
2018-03-26T20:25:41.372Z,8.49
2018-03-26T20:28:08.968Z,8.36
2018-03-26T20:30:36.588Z,8.46
2018-03-26T20:33:04.327Z,8.54
2018-03-26T20:35:31.921Z,8.58
2018-03-26T20:37:59.551Z,8.69
2018-03-26T20:40:27.152Z,8.82
2018-03-26T20:42:54.754Z,8.71
2018-03-26T20:45:22.408Z,8.72
2018-03-26T20:47:49.999Z,8.56
2018-03-26T20:50:17.600Z,8.40
2018-03-26T20:52:45.223Z,8.32
2018-03-26T20:55:12.875Z,8.47
2018-03-26T20:57:40.525Z,8.69
2018-03-26T21:00:09.108Z,8.80
2018-03-26T21:02:36.707Z,8.75
2018-03-26T21:05:04.326Z,8.68
2018-03-26T21:07:32.065Z,8.53
2018-03-26T21:09:59.745Z,8.69
2018-03-26T21:12:27.473Z,8.56
2018-03-26T21:14:55.105Z,8.63
2018-03-26T21:17:22.697Z,8.53
2018-03-26T21:19:50.308Z,8.52
2018-03-26T21:22:17.932Z,8.50
2018-03-26T21:24:45.532Z,8.50
2018-03-26T21:27:13.135Z,8.54
2018-03-26T21:29:40.767Z,8.47
2018-03-26T21:32:08.371Z,8.35
2018-03-26T21:34:35.968Z,8.53
2018-03-26T21:37:03.620Z,8.45
2018-03-26T21:39:31.226Z,8.39
2018-03-26T21:41:58.819Z,8.35
2018-03-26T21:44:26.454Z,8.31
2018-03-26T21:46:54.068Z,8.39
2018-03-26T21:49:21.676Z,8.35
2018-03-26T21:51:49.309Z,8.31
2018-03-26T21:54:16.904Z,8.14
2018-03-26T21:56:44.496Z,8.08
2018-03-26T21:59:12.123Z,8.06
2018-03-26T22:01:39.733Z,8.16
2018-03-26T22:04:07.324Z,8.12
2018-03-26T22:06:34.954Z,8.12
2018-03-26T22:09:02.585Z,8.26
2018-03-26T22:11:30.176Z,8.23
2018-03-26T22:13:57.831Z,8.17
2018-03-26T22:16:25.429Z,8.20
2018-03-26T22:18:53.796Z,8.14
2018-03-26T22:21:21.426Z,8.27
2018-03-26T22:23:49.090Z,8.30
2018-03-26T22:26:16.684Z,8.35
2018-03-26T22:28:44.328Z,8.52
2018-03-26T22:31:11.949Z,8.36
2018-03-26T22:33:39.540Z,8.36
2018-03-26T22:36:07.179Z,8.43
2018-03-26T22:38:34.781Z,8.43
2018-03-26T22:41:02.374Z,8.29
2018-03-26T22:43:29.992Z,8.43
2018-03-26T22:45:57.600Z,8.40
2018-03-26T22:48:25.187Z,8.38
2018-03-26T22:50:52.986Z,8.17
2018-03-26T22:53:20.604Z,8.29
2018-03-26T22:55:48.224Z,8.42
2018-03-26T22:58:15.872Z,8.38
2018-03-26T23:00:43.460Z,8.11
2018-03-26T23:03:11.044Z,8.07
2018-03-26T23:05:38.664Z,7.95
2018-03-26T23:08:06.247Z,7.64
2018-03-26T23:10:33.849Z,7.77
2018-03-26T23:13:01.476Z,7.79
2018-03-26T23:15:29.073Z,7.77
2018-03-26T23:17:56.669Z,7.84
2018-03-26T23:20:24.651Z,7.89
2018-03-26T23:22:52.248Z,7.80
2018-03-26T23:25:19.845Z,7.68
2018-03-26T23:27:47.475Z,7.36
2018-03-26T23:30:15.100Z,7.27
2018-03-26T23:32:42.764Z,7.23
2018-03-26T23:35:10.383Z,7.46
2018-03-26T23:37:37.976Z,7.42
2018-03-26T23:40:05.571Z,7.53
2018-03-26T23:42:33.219Z,7.54
2018-03-26T23:45:00.815Z,7.50
2018-03-26T23:47:28.427Z,7.46
2018-03-26T23:49:56.076Z,7.61
2018-03-26T23:52:23.673Z,7.62
2018-03-26T23:54:51.277Z,7.56
2018-03-26T23:57:18.913Z,7.56
2018-03-26T23:59:46.518Z,7.61
